Palmeira, Brazil
Current Conditions -  °F | °C
As of 10:00 PM on Thursday 18 Dec 2014 (Local Time) from SBBI Reporting Station
Broken Clouds Broken Clouds  
Wind Chill: 68°   Ceiling: 500
Heat Index: 68°   Visibility: 6mi
Dew Point: 66°   Wind: 5mph
Humidity: 94%   Direction: 90°E
Pressure: 29.94"   Gusts: NA
Location:  25.43°S, 50.01°W
Report Text: SBBI 190000Z 09004KT 9999 BKN005 BKN090 20/19 Q1014
Loading
Personal Weather Stations






























Interactive Weather Map New forecast layout! Learn more

10-Day Weather Forecast

Advertisements
Track Severe Weather on mobile